sensor_id;sensor_type;location;lat;lon;timestamp;P1;durP1;ratioP1;P2;durP2;ratioP2
30647;SDS011;17683;53.360;9.736;2022-11-04T00:01:07;8.30;;;3.35;;
30647;SDS011;17683;53.360;9.736;2022-11-04T00:03:33;9.43;;;3.42;;
30647;SDS011;17683;53.360;9.736;2022-11-04T00:05:59;8.32;;;3.33;;
30647;SDS011;17683;53.360;9.736;2022-11-04T00:08:25;6.82;;;3.63;;
30647;SDS011;17683;53.360;9.736;2022-11-04T00:10:55;8.43;;;3.53;;
30647;SDS011;17683;53.360;9.736;2022-11-04T00:13:40;6.40;;;3.25;;
30647;SDS011;17683;53.360;9.736;2022-11-04T00:16:06;7.85;;;3.75;;
30647;SDS011;17683;53.360;9.736;2022-11-04T00:18:51;8.20;;;3.13;;
30647;SDS011;17683;53.360;9.736;2022-11-04T00:21:17;6.85;;;3.15;;
30647;SDS011;17683;53.360;9.736;2022-11-04T00:26:45;5.45;;;3.15;;
30647;SDS011;17683;53.360;9.736;2022-11-04T00:29:30;8.10;;;3.60;;
30647;SDS011;17683;53.360;9.736;2022-11-04T00:31:55;5.95;;;3.83;;
30647;SDS011;17683;53.360;9.736;2022-11-04T00:34:40;6.55;;;3.70;;
30647;SDS011;17683;53.360;9.736;2022-11-04T00:37:05;9.77;;;3.20;;
30647;SDS011;17683;53.360;9.736;2022-11-04T00:39:31;10.38;;;3.97;;
30647;SDS011;17683;53.360;9.736;2022-11-04T00:41:57;6.82;;;3.95;;
30647;SDS011;17683;53.360;9.736;2022-11-04T00:44:22;11.20;;;3.65;;
30647;SDS011;17683;53.360;9.736;2022-11-04T00:46:48;7.30;;;2.97;;
30647;SDS011;17683;53.360;9.736;2022-11-04T00:49:14;4.88;;;3.17;;
30647;SDS011;17683;53.360;9.736;2022-11-04T00:51:40;14.65;;;3.97;;
30647;SDS011;17683;53.360;9.736;2022-11-04T00:54:05;10.02;;;4.22;;
30647;SDS011;17683;53.360;9.736;2022-11-04T00:56:31;10.07;;;2.53;;
30647;SDS011;17683;53.360;9.736;2022-11-04T00:59:00;11.52;;;3.28;;
30647;SDS011;17683;53.360;9.736;2022-11-04T01:01:25;5.03;;;3.60;;
30647;SDS011;17683;53.360;9.736;2022-11-04T01:03:51;5.88;;;3.50;;
30647;SDS011;17683;53.360;9.736;2022-11-04T01:06:19;8.48;;;3.95;;
30647;SDS011;17683;53.360;9.736;2022-11-04T01:08:46;5.68;;;3.65;;
30647;SDS011;17683;53.360;9.736;2022-11-04T01:11:12;8.88;;;3.35;;
30647;SDS011;17683;53.360;9.736;2022-11-04T01:13:39;5.70;;;3.45;;
30647;SDS011;17683;53.360;9.736;2022-11-04T01:16:07;8.13;;;3.50;;
30647;SDS011;17683;53.360;9.736;2022-11-04T01:18:35;5.60;;;3.22;;
30647;SDS011;17683;53.360;9.736;2022-11-04T01:21:04;7.80;;;4.38;;
30647;SDS011;17683;53.360;9.736;2022-11-04T01:23:32;5.72;;;3.38;;
30647;SDS011;17683;53.360;9.736;2022-11-04T01:25:59;6.90;;;4.05;;
30647;SDS011;17683;53.360;9.736;2022-11-04T01:28:25;6.07;;;3.33;;
30647;SDS011;17683;53.360;9.736;2022-11-04T01:30:50;7.10;;;3.80;;
30647;SDS011;17683;53.360;9.736;2022-11-04T01:33:16;7.70;;;3.60;;
30647;SDS011;17683;53.360;9.736;2022-11-04T01:35:42;6.00;;;3.25;;
30647;SDS011;17683;53.360;9.736;2022-11-04T01:38:08;8.85;;;3.63;;
30647;SDS011;17683;53.360;9.736;2022-11-04T01:40:40;8.20;;;3.45;;
30647;SDS011;17683;53.360;9.736;2022-11-04T01:43:11;4.20;;;2.97;;
30647;SDS011;17683;53.360;9.736;2022-11-04T01:45:40;5.72;;;3.60;;
30647;SDS011;17683;53.360;9.736;2022-11-04T01:48:12;7.90;;;3.60;;
30647;SDS011;17683;53.360;9.736;2022-11-04T01:50:45;8.57;;;3.47;;
30647;SDS011;17683;53.360;9.736;2022-11-04T01:53:18;7.43;;;3.53;;
30647;SDS011;17683;53.360;9.736;2022-11-04T01:55:55;7.20;;;3.42;;
30647;SDS011;17683;53.360;9.736;2022-11-04T01:58:24;7.88;;;3.38;;
30647;SDS011;17683;53.360;9.736;2022-11-04T02:00:53;13.60;;;3.78;;
30647;SDS011;17683;53.360;9.736;2022-11-04T02:03:29;6.50;;;3.53;;
30647;SDS011;17683;53.360;9.736;2022-11-04T02:05:59;7.32;;;3.83;;
30647;SDS011;17683;53.360;9.736;2022-11-04T02:08:26;11.30;;;4.88;;
30647;SDS011;17683;53.360;9.736;2022-11-04T02:10:56;8.52;;;4.15;;
30647;SDS011;17683;53.360;9.736;2022-11-04T02:13:24;7.47;;;4.25;;
30647;SDS011;17683;53.360;9.736;2022-11-04T02:30:57;7.05;;;3.67;;
30647;SDS011;17683;53.360;9.736;2022-11-04T02:36:11;6.30;;;3.47;;
30647;SDS011;17683;53.360;9.736;2022-11-04T02:39:11;10.90;;;4.28;;
30647;SDS011;17683;53.360;9.736;2022-11-04T02:41:58;9.95;;;4.05;;
30647;SDS011;17683;53.360;9.736;2022-11-04T02:47:18;7.65;;;4.32;;
30647;SDS011;17683;53.360;9.736;2022-11-04T02:49:51;6.35;;;3.92;;
30647;SDS011;17683;53.360;9.736;2022-11-04T02:54:57;11.43;;;4.63;;
30647;SDS011;17683;53.360;9.736;2022-11-04T02:57:46;7.88;;;3.97;;
30647;SDS011;17683;53.360;9.736;2022-11-04T03:00:14;8.93;;;4.38;;
30647;SDS011;17683;53.360;9.736;2022-11-04T03:05:17;6.07;;;3.92;;
30647;SDS011;17683;53.360;9.736;2022-11-04T03:07:46;8.02;;;3.97;;
30647;SDS011;17683;53.360;9.736;2022-11-04T03:10:16;7.22;;;4.85;;
30647;SDS011;17683;53.360;9.736;2022-11-04T03:12:53;9.27;;;4.13;;
30647;SDS011;17683;53.360;9.736;2022-11-04T03:15:48;7.53;;;4.28;;
30647;SDS011;17683;53.360;9.736;2022-11-04T03:18:25;6.53;;;4.35;;
30647;SDS011;17683;53.360;9.736;2022-11-04T03:20:57;8.77;;;4.95;;
30647;SDS011;17683;53.360;9.736;2022-11-04T03:23:27;8.82;;;5.35;;
30647;SDS011;17683;53.360;9.736;2022-11-04T03:25:55;9.27;;;5.10;;
30647;SDS011;17683;53.360;9.736;2022-11-04T03:31:00;10.25;;;4.85;;
30647;SDS011;17683;53.360;9.736;2022-11-04T03:33:39;6.13;;;4.70;;
30647;SDS011;17683;53.360;9.736;2022-11-04T03:36:12;9.63;;;5.35;;
30647;SDS011;17683;53.360;9.736;2022-11-04T03:38:39;5.63;;;4.70;;
30647;SDS011;17683;53.360;9.736;2022-11-04T03:41:08;7.05;;;5.25;;
30647;SDS011;17683;53.360;9.736;2022-11-04T03:44:05;7.72;;;5.00;;
30647;SDS011;17683;53.360;9.736;2022-11-04T03:46:31;7.10;;;4.93;;
30647;SDS011;17683;53.360;9.736;2022-11-04T03:48:57;8.85;;;4.88;;
30647;SDS011;17683;53.360;9.736;2022-11-04T03:51:25;4.82;;;4.20;;
30647;SDS011;17683;53.360;9.736;2022-11-04T03:53:50;8.82;;;4.90;;
30647;SDS011;17683;53.360;9.736;2022-11-04T04:04:36;4.20;;;3.80;;
30647;SDS011;17683;53.360;9.736;2022-11-04T04:07:06;7.85;;;3.88;;
30647;SDS011;17683;53.360;9.736;2022-11-04T04:12:27;6.03;;;3.55;;
30647;SDS011;17683;53.360;9.736;2022-11-04T04:15:20;5.88;;;3.80;;
30647;SDS011;17683;53.360;9.736;2022-11-04T04:17:51;4.90;;;3.83;;
30647;SDS011;17683;53.360;9.736;2022-11-04T04:20:23;3.55;;;2.83;;
30647;SDS011;17683;53.360;9.736;2022-11-04T04:23:02;6.15;;;3.20;;
30647;SDS011;17683;53.360;9.736;2022-11-04T04:25:50;4.97;;;2.60;;
30647;SDS011;17683;53.360;9.736;2022-11-04T04:28:36;4.88;;;2.75;;
30647;SDS011;17683;53.360;9.736;2022-11-04T04:31:04;2.80;;;2.28;;
30647;SDS011;17683;53.360;9.736;2022-11-04T04:33:31;4.78;;;2.20;;
30647;SDS011;17683;53.360;9.736;2022-11-04T04:35:56;3.45;;;1.98;;
30647;SDS011;17683;53.360;9.736;2022-11-04T04:38:24;3.45;;;1.75;;
30647;SDS011;17683;53.360;9.736;2022-11-04T04:41:15;3.28;;;1.95;;
30647;SDS011;17683;53.360;9.736;2022-11-04T04:44:24;2.00;;;1.52;;
30647;SDS011;17683;53.360;9.736;2022-11-04T04:47:10;4.53;;;1.90;;
30647;SDS011;17683;53.360;9.736;2022-11-04T04:49:50;1.40;;;1.30;;
30647;SDS011;17683;53.360;9.736;2022-11-04T04:52:16;3.85;;;2.25;;
30647;SDS011;17683;53.360;9.736;2022-11-04T04:54:42;2.92;;;1.45;;
30647;SDS011;17683;53.360;9.736;2022-11-04T04:57:09;1.80;;;1.67;;
30647;SDS011;17683;53.360;9.736;2022-11-04T04:59:34;2.72;;;1.60;;
30647;SDS011;17683;53.360;9.736;2022-11-04T05:02:00;2.40;;;1.85;;
30647;SDS011;17683;53.360;9.736;2022-11-04T05:04:26;2.92;;;1.98;;
30647;SDS011;17683;53.360;9.736;2022-11-04T05:06:52;2.92;;;2.17;;
30647;SDS011;17683;53.360;9.736;2022-11-04T05:09:17;3.33;;;2.20;;
30647;SDS011;17683;53.360;9.736;2022-11-04T05:11:43;5.90;;;3.08;;
30647;SDS011;17683;53.360;9.736;2022-11-04T05:14:09;3.30;;;1.95;;
30647;SDS011;17683;53.360;9.736;2022-11-04T05:16:34;2.50;;;2.08;;
30647;SDS011;17683;53.360;9.736;2022-11-04T05:19:00;2.40;;;2.17;;
30647;SDS011;17683;53.360;9.736;2022-11-04T05:21:26;2.65;;;2.38;;
30647;SDS011;17683;53.360;9.736;2022-11-04T05:23:51;3.85;;;2.50;;
30647;SDS011;17683;53.360;9.736;2022-11-04T05:26:18;4.13;;;3.03;;
30647;SDS011;17683;53.360;9.736;2022-11-04T05:28:43;3.42;;;2.78;;
30647;SDS011;17683;53.360;9.736;2022-11-04T05:31:09;4.63;;;2.30;;
30647;SDS011;17683;53.360;9.736;2022-11-04T05:33:35;5.00;;;2.78;;
30647;SDS011;17683;53.360;9.736;2022-11-04T05:36:04;6.07;;;2.05;;
30647;SDS011;17683;53.360;9.736;2022-11-04T05:38:31;3.63;;;2.75;;
30647;SDS011;17683;53.360;9.736;2022-11-04T05:40:57;4.43;;;3.00;;
30647;SDS011;17683;53.360;9.736;2022-11-04T05:43:22;4.68;;;2.65;;
30647;SDS011;17683;53.360;9.736;2022-11-04T05:45:48;4.68;;;2.13;;
30647;SDS011;17683;53.360;9.736;2022-11-04T05:48:14;3.20;;;2.53;;
30647;SDS011;17683;53.360;9.736;2022-11-04T05:50:40;3.92;;;2.80;;
30647;SDS011;17683;53.360;9.736;2022-11-04T05:53:06;5.68;;;3.22;;
30647;SDS011;17683;53.360;9.736;2022-11-04T05:55:32;3.63;;;2.45;;
30647;SDS011;17683;53.360;9.736;2022-11-04T05:57:57;3.88;;;2.88;;
30647;SDS011;17683;53.360;9.736;2022-11-04T06:00:24;3.40;;;2.83;;
30647;SDS011;17683;53.360;9.736;2022-11-04T06:02:50;4.10;;;2.80;;
30647;SDS011;17683;53.360;9.736;2022-11-04T06:05:16;5.15;;;2.83;;
30647;SDS011;17683;53.360;9.736;2022-11-04T06:07:42;3.00;;;2.53;;
30647;SDS011;17683;53.360;9.736;2022-11-04T06:10:07;4.75;;;3.30;;
30647;SDS011;17683;53.360;9.736;2022-11-04T06:12:34;3.65;;;3.00;;
30647;SDS011;17683;53.360;9.736;2022-11-04T06:14:59;3.90;;;3.53;;
30647;SDS011;17683;53.360;9.736;2022-11-04T06:17:25;5.90;;;3.83;;
30647;SDS011;17683;53.360;9.736;2022-11-04T06:19:51;5.38;;;3.25;;
30647;SDS011;17683;53.360;9.736;2022-11-04T06:22:17;5.18;;;4.40;;
30647;SDS011;17683;53.360;9.736;2022-11-04T06:24:43;4.10;;;3.10;;
30647;SDS011;17683;53.360;9.736;2022-11-04T06:27:10;3.75;;;3.30;;
30647;SDS011;17683;53.360;9.736;2022-11-04T06:29:36;4.57;;;3.80;;
30647;SDS011;17683;53.360;9.736;2022-11-04T06:32:09;4.70;;;3.90;;
30647;SDS011;17683;53.360;9.736;2022-11-04T06:34:36;5.38;;;4.00;;
30647;SDS011;17683;53.360;9.736;2022-11-04T06:37:02;5.13;;;4.38;;
30647;SDS011;17683;53.360;9.736;2022-11-04T06:39:28;7.10;;;4.75;;
30647;SDS011;17683;53.360;9.736;2022-11-04T06:41:55;4.82;;;3.90;;
30647;SDS011;17683;53.360;9.736;2022-11-04T06:44:21;5.07;;;4.40;;
30647;SDS011;17683;53.360;9.736;2022-11-04T06:46:46;6.88;;;5.32;;
30647;SDS011;17683;53.360;9.736;2022-11-04T06:49:16;7.93;;;5.32;;
30647;SDS011;17683;53.360;9.736;2022-11-04T06:51:44;5.18;;;4.63;;
30647;SDS011;17683;53.360;9.736;2022-11-04T06:54:10;6.05;;;5.28;;
30647;SDS011;17683;53.360;9.736;2022-11-04T06:56:36;5.35;;;4.85;;
30647;SDS011;17683;53.360;9.736;2022-11-04T06:59:02;7.50;;;5.05;;
30647;SDS011;17683;53.360;9.736;2022-11-04T07:01:29;5.20;;;4.70;;
30647;SDS011;17683;53.360;9.736;2022-11-04T07:03:57;6.90;;;5.43;;
30647;SDS011;17683;53.360;9.736;2022-11-04T07:06:23;6.05;;;5.45;;
30647;SDS011;17683;53.360;9.736;2022-11-04T07:08:50;7.60;;;5.78;;
30647;SDS011;17683;53.360;9.736;2022-11-04T07:11:17;6.53;;;5.85;;
30647;SDS011;17683;53.360;9.736;2022-11-04T07:13:45;7.75;;;5.47;;
30647;SDS011;17683;53.360;9.736;2022-11-04T07:16:11;6.85;;;5.60;;
30647;SDS011;17683;53.360;9.736;2022-11-04T07:18:37;7.82;;;5.57;;
30647;SDS011;17683;53.360;9.736;2022-11-04T07:21:03;6.30;;;5.40;;
30647;SDS011;17683;53.360;9.736;2022-11-04T07:23:29;8.57;;;5.43;;
30647;SDS011;17683;53.360;9.736;2022-11-04T07:26:00;5.93;;;5.32;;
30647;SDS011;17683;53.360;9.736;2022-11-04T07:28:28;8.23;;;6.15;;
30647;SDS011;17683;53.360;9.736;2022-11-04T07:30:54;5.65;;;5.15;;
30647;SDS011;17683;53.360;9.736;2022-11-04T07:33:22;6.25;;;5.40;;
30647;SDS011;17683;53.360;9.736;2022-11-04T07:35:48;6.63;;;5.57;;
30647;SDS011;17683;53.360;9.736;2022-11-04T07:38:14;5.20;;;4.68;;
30647;SDS011;17683;53.360;9.736;2022-11-04T07:40:39;7.75;;;5.18;;
30647;SDS011;17683;53.360;9.736;2022-11-04T07:43:05;6.57;;;4.47;;
30647;SDS011;17683;53.360;9.736;2022-11-04T07:45:31;15.27;;;6.20;;
30647;SDS011;17683;53.360;9.736;2022-11-04T07:47:57;6.22;;;5.63;;
30647;SDS011;17683;53.360;9.736;2022-11-04T07:50:22;8.18;;;4.43;;
30647;SDS011;17683;53.360;9.736;2022-11-04T07:52:48;6.72;;;5.10;;
30647;SDS011;17683;53.360;9.736;2022-11-04T07:55:15;8.18;;;5.50;;
30647;SDS011;17683;53.360;9.736;2022-11-04T07:57:43;6.20;;;5.07;;
30647;SDS011;17683;53.360;9.736;2022-11-04T08:00:10;7.25;;;5.28;;
30647;SDS011;17683;53.360;9.736;2022-11-04T08:02:36;5.55;;;4.80;;
30647;SDS011;17683;53.360;9.736;2022-11-04T08:05:02;8.18;;;5.70;;
30647;SDS011;17683;53.360;9.736;2022-11-04T08:07:30;6.10;;;4.88;;
30647;SDS011;17683;53.360;9.736;2022-11-04T08:09:56;7.40;;;4.95;;
30647;SDS011;17683;53.360;9.736;2022-11-04T08:12:21;6.07;;;5.47;;
30647;SDS011;17683;53.360;9.736;2022-11-04T08:14:48;6.80;;;4.70;;
30647;SDS011;17683;53.360;9.736;2022-11-04T08:17:14;5.72;;;4.82;;
30647;SDS011;17683;53.360;9.736;2022-11-04T08:19:40;5.55;;;5.00;;
30647;SDS011;17683;53.360;9.736;2022-11-04T08:22:06;5.03;;;4.50;;
30647;SDS011;17683;53.360;9.736;2022-11-04T08:24:32;7.65;;;5.20;;
30647;SDS011;17683;53.360;9.736;2022-11-04T08:26:59;6.13;;;5.25;;
30647;SDS011;17683;53.360;9.736;2022-11-04T08:29:25;5.70;;;5.07;;
30647;SDS011;17683;53.360;9.736;2022-11-04T08:31:52;4.85;;;4.05;;
30647;SDS011;17683;53.360;9.736;2022-11-04T08:34:17;4.30;;;3.90;;
30647;SDS011;17683;53.360;9.736;2022-11-04T08:36:43;5.32;;;4.55;;
30647;SDS011;17683;53.360;9.736;2022-11-04T08:39:10;6.38;;;4.35;;
30647;SDS011;17683;53.360;9.736;2022-11-04T08:41:38;5.63;;;4.28;;
30647;SDS011;17683;53.360;9.736;2022-11-04T08:44:09;4.07;;;3.67;;
30647;SDS011;17683;53.360;9.736;2022-11-04T08:46:37;4.97;;;4.20;;
30647;SDS011;17683;53.360;9.736;2022-11-04T08:49:04;6.22;;;4.25;;
30647;SDS011;17683;53.360;9.736;2022-11-04T08:51:31;5.40;;;4.68;;
30647;SDS011;17683;53.360;9.736;2022-11-04T08:53:59;3.70;;;3.40;;
30647;SDS011;17683;53.360;9.736;2022-11-04T08:56:26;4.65;;;4.25;;
30647;SDS011;17683;53.360;9.736;2022-11-04T08:58:54;5.78;;;4.00;;
30647;SDS011;17683;53.360;9.736;2022-11-04T09:01:22;6.18;;;3.92;;
30647;SDS011;17683;53.360;9.736;2022-11-04T09:03:49;4.10;;;3.70;;
30647;SDS011;17683;53.360;9.736;2022-11-04T09:06:17;5.53;;;4.18;;
30647;SDS011;17683;53.360;9.736;2022-11-04T09:08:48;5.50;;;3.40;;
30647;SDS011;17683;53.360;9.736;2022-11-04T09:11:15;5.40;;;3.53;;
30647;SDS011;17683;53.360;9.736;2022-11-04T09:13:41;4.93;;;3.65;;
30647;SDS011;17683;53.360;9.736;2022-11-04T09:16:09;5.05;;;3.72;;
30647;SDS011;17683;53.360;9.736;2022-11-04T09:18:36;4.45;;;3.38;;
30647;SDS011;17683;53.360;9.736;2022-11-04T09:21:03;3.45;;;3.08;;
30647;SDS011;17683;53.360;9.736;2022-11-04T09:23:30;4.05;;;3.63;;
30647;SDS011;17683;53.360;9.736;2022-11-04T09:25:56;5.00;;;3.47;;
30647;SDS011;17683;53.360;9.736;2022-11-04T09:28:26;7.15;;;4.60;;
30647;SDS011;17683;53.360;9.736;2022-11-04T09:30:52;6.90;;;4.60;;
30647;SDS011;17683;53.360;9.736;2022-11-04T09:33:18;4.70;;;4.28;;
30647;SDS011;17683;53.360;9.736;2022-11-04T09:35:52;5.90;;;4.72;;
30647;SDS011;17683;53.360;9.736;2022-11-04T09:38:22;4.45;;;3.80;;
30647;SDS011;17683;53.360;9.736;2022-11-04T09:40:48;5.40;;;4.90;;
30647;SDS011;17683;53.360;9.736;2022-11-04T09:46:09;4.65;;;4.15;;
30647;SDS011;17683;53.360;9.736;2022-11-04T09:48:42;6.28;;;4.22;;
30647;SDS011;17683;53.360;9.736;2022-11-04T09:51:12;7.32;;;4.72;;
30647;SDS011;17683;53.360;9.736;2022-11-04T09:53:42;4.80;;;4.00;;
30647;SDS011;17683;53.360;9.736;2022-11-04T09:56:16;4.70;;;4.20;;
30647;SDS011;17683;53.360;9.736;2022-11-04T09:58:45;4.80;;;4.32;;
30647;SDS011;17683;53.360;9.736;2022-11-04T10:04:27;5.88;;;4.60;;
30647;SDS011;17683;53.360;9.736;2022-11-04T10:06:43;7.13;;;5.22;;
30647;SDS011;17683;53.360;9.736;2022-11-04T10:12:11;6.90;;;5.85;;
30647;SDS011;17683;53.360;9.736;2022-11-04T10:15:03;6.28;;;5.60;;
30647;SDS011;17683;53.360;9.736;2022-11-04T10:17:44;8.02;;;5.35;;
30647;SDS011;17683;53.360;9.736;2022-11-04T10:23:21;5.40;;;4.90;;
30647;SDS011;17683;53.360;9.736;2022-11-04T10:28:57;7.25;;;5.63;;
30647;SDS011;17683;53.360;9.736;2022-11-04T10:31:28;5.38;;;4.90;;
30647;SDS011;17683;53.360;9.736;2022-11-04T10:33:55;5.40;;;4.90;;
30647;SDS011;17683;53.360;9.736;2022-11-04T10:36:36;7.18;;;4.72;;
30647;SDS011;17683;53.360;9.736;2022-11-04T10:39:08;4.38;;;3.97;;
30647;SDS011;17683;53.360;9.736;2022-11-04T10:41:50;3.90;;;3.60;;
30647;SDS011;17683;53.360;9.736;2022-11-04T10:44:21;5.82;;;3.40;;
30647;SDS011;17683;53.360;9.736;2022-11-04T10:47:15;3.72;;;3.30;;
30647;SDS011;17683;53.360;9.736;2022-11-04T10:52:36;3.88;;;3.58;;
30647;SDS011;17683;53.360;9.736;2022-11-04T10:55:02;4.80;;;3.50;;
30647;SDS011;17683;53.360;9.736;2022-11-04T10:57:37;3.88;;;3.25;;
30647;SDS011;17683;53.360;9.736;2022-11-04T11:00:03;3.67;;;3.15;;
30647;SDS011;17683;53.360;9.736;2022-11-04T11:05:20;6.38;;;3.03;;
30647;SDS011;17683;53.360;9.736;2022-11-04T11:07:49;3.85;;;2.90;;
30647;SDS011;17683;53.360;9.736;2022-11-04T11:10:18;3.95;;;3.10;;
30647;SDS011;17683;53.360;9.736;2022-11-04T11:13:01;7.22;;;3.53;;
30647;SDS011;17683;53.360;9.736;2022-11-04T11:15:31;2.97;;;2.50;;
30647;SDS011;17683;53.360;9.736;2022-11-04T11:20:31;4.68;;;2.45;;
30647;SDS011;17683;53.360;9.736;2022-11-04T11:23:01;1.52;;;1.30;;
30647;SDS011;17683;53.360;9.736;2022-11-04T11:25:33;3.92;;;1.40;;
30647;SDS011;17683;53.360;9.736;2022-11-04T11:30:31;3.08;;;1.33;;
30647;SDS011;17683;53.360;9.736;2022-11-04T11:33:04;2.72;;;1.17;;
30647;SDS011;17683;53.360;9.736;2022-11-04T11:35:39;4.15;;;1.50;;
30647;SDS011;17683;53.360;9.736;2022-11-04T11:38:21;2.50;;;1.30;;
30647;SDS011;17683;53.360;9.736;2022-11-04T11:40:50;3.45;;;1.30;;
30647;SDS011;17683;53.360;9.736;2022-11-04T11:43:25;3.42;;;1.83;;
30647;SDS011;17683;53.360;9.736;2022-11-04T11:45:53;1.90;;;1.25;;
30647;SDS011;17683;53.360;9.736;2022-11-04T11:48:28;4.05;;;1.80;;
30647;SDS011;17683;53.360;9.736;2022-11-04T11:50:56;4.38;;;1.45;;
30647;SDS011;17683;53.360;9.736;2022-11-04T11:53:24;5.57;;;1.65;;
30647;SDS011;17683;53.360;9.736;2022-11-04T11:56:02;3.10;;;1.25;;
30647;SDS011;17683;53.360;9.736;2022-11-04T11:59:00;4.25;;;1.63;;
30647;SDS011;17683;53.360;9.736;2022-11-04T12:01:34;3.30;;;2.17;;
30647;SDS011;17683;53.360;9.736;2022-11-04T12:04:10;2.53;;;1.60;;
30647;SDS011;17683;53.360;9.736;2022-11-04T12:11:58;3.35;;;2.58;;
30647;SDS011;17683;53.360;9.736;2022-11-04T12:25:18;4.68;;;1.92;;
30647;SDS011;17683;53.360;9.736;2022-11-04T12:30:51;2.42;;;1.98;;
30647;SDS011;17683;53.360;9.736;2022-11-04T12:47:49;3.33;;;1.38;;
30647;SDS011;17683;53.360;9.736;2022-11-04T12:55:47;3.72;;;0.98;;
30647;SDS011;17683;53.360;9.736;2022-11-04T13:00:47;3.65;;;1.08;;
30647;SDS011;17683;53.360;9.736;2022-11-04T13:03:26;5.13;;;1.15;;
30647;SDS011;17683;53.360;9.736;2022-11-04T13:06:18;2.72;;;0.80;;
30647;SDS011;17683;53.360;9.736;2022-11-04T13:11:38;2.88;;;0.70;;
30647;SDS011;17683;53.360;9.736;2022-11-04T13:16:40;2.63;;;0.90;;
30647;SDS011;17683;53.360;9.736;2022-11-04T13:21:47;1.75;;;0.63;;
30647;SDS011;17683;53.360;9.736;2022-11-04T13:24:21;1.60;;;0.68;;
30647;SDS011;17683;53.360;9.736;2022-11-04T13:26:48;3.88;;;1.10;;
30647;SDS011;17683;53.360;9.736;2022-11-04T13:29:16;2.70;;;1.00;;
30647;SDS011;17683;53.360;9.736;2022-11-04T13:31:48;5.47;;;0.80;;
30647;SDS011;17683;53.360;9.736;2022-11-04T13:39:58;2.80;;;0.70;;
30647;SDS011;17683;53.360;9.736;2022-11-04T13:45:03;5.03;;;1.48;;
30647;SDS011;17683;53.360;9.736;2022-11-04T13:47:35;4.68;;;0.95;;
30647;SDS011;17683;53.360;9.736;2022-11-04T13:50:14;6.53;;;1.40;;
30647;SDS011;17683;53.360;9.736;2022-11-04T13:52:57;5.75;;;0.95;;
30647;SDS011;17683;53.360;9.736;2022-11-04T13:55:23;10.15;;;1.35;;
30647;SDS011;17683;53.360;9.736;2022-11-04T14:00:29;3.35;;;0.90;;
30647;SDS011;17683;53.360;9.736;2022-11-04T14:05:45;3.38;;;0.88;;
30647;SDS011;17683;53.360;9.736;2022-11-04T14:08:27;4.40;;;1.00;;
30647;SDS011;17683;53.360;9.736;2022-11-04T14:10:58;9.48;;;1.20;;
30647;SDS011;17683;53.360;9.736;2022-11-04T14:16:03;2.80;;;1.17;;
30647;SDS011;17683;53.360;9.736;2022-11-04T14:18:36;3.63;;;0.95;;
30647;SDS011;17683;53.360;9.736;2022-11-04T14:21:10;4.82;;;0.90;;
30647;SDS011;17683;53.360;9.736;2022-11-04T14:24:02;5.70;;;1.23;;
30647;SDS011;17683;53.360;9.736;2022-11-04T14:26:41;2.90;;;1.00;;
30647;SDS011;17683;53.360;9.736;2022-11-04T14:29:16;5.32;;;0.90;;
30647;SDS011;17683;53.360;9.736;2022-11-04T14:31:51;4.32;;;0.90;;
30647;SDS011;17683;53.360;9.736;2022-11-04T14:34:29;2.60;;;0.60;;
30647;SDS011;17683;53.360;9.736;2022-11-04T14:37:40;6.78;;;1.45;;
30647;SDS011;17683;53.360;9.736;2022-11-04T14:39:52;2.40;;;0.63;;
30647;SDS011;17683;53.360;9.736;2022-11-04T14:45:17;3.38;;;0.75;;
30647;SDS011;17683;53.360;9.736;2022-11-04T14:47:56;2.45;;;1.10;;
30647;SDS011;17683;53.360;9.736;2022-11-04T14:50:39;4.03;;;1.50;;
30647;SDS011;17683;53.360;9.736;2022-11-04T14:53:09;4.10;;;1.10;;
30647;SDS011;17683;53.360;9.736;2022-11-04T14:56:02;2.25;;;0.75;;
30647;SDS011;17683;53.360;9.736;2022-11-04T14:58:55;2.38;;;1.00;;
30647;SDS011;17683;53.360;9.736;2022-11-04T15:01:26;5.97;;;0.95;;
30647;SDS011;17683;53.360;9.736;2022-11-04T15:03:55;5.93;;;1.63;;
30647;SDS011;17683;53.360;9.736;2022-11-04T15:06:28;1.73;;;0.85;;
30647;SDS011;17683;53.360;9.736;2022-11-04T15:08:55;3.40;;;1.25;;
30647;SDS011;17683;53.360;9.736;2022-11-04T15:11:25;3.53;;;1.20;;
30647;SDS011;17683;53.360;9.736;2022-11-04T15:16:39;5.15;;;1.33;;
30647;SDS011;17683;53.360;9.736;2022-11-04T15:19:07;3.10;;;1.23;;
30647;SDS011;17683;53.360;9.736;2022-11-04T15:21:38;2.92;;;1.20;;
30647;SDS011;17683;53.360;9.736;2022-11-04T15:24:05;6.38;;;1.52;;
30647;SDS011;17683;53.360;9.736;2022-11-04T15:26:33;3.65;;;1.35;;
30647;SDS011;17683;53.360;9.736;2022-11-04T15:29:00;4.30;;;1.45;;
30647;SDS011;17683;53.360;9.736;2022-11-04T15:31:32;5.80;;;1.50;;
30647;SDS011;17683;53.360;9.736;2022-11-04T15:34:00;5.28;;;1.90;;
30647;SDS011;17683;53.360;9.736;2022-11-04T15:36:29;3.17;;;1.77;;
30647;SDS011;17683;53.360;9.736;2022-11-04T15:41:43;2.25;;;0.98;;
30647;SDS011;17683;53.360;9.736;2022-11-04T15:44:29;4.32;;;0.90;;
30647;SDS011;17683;53.360;9.736;2022-11-04T15:46:58;5.57;;;1.08;;
30647;SDS011;17683;53.360;9.736;2022-11-04T15:49:26;8.32;;;1.10;;
30647;SDS011;17683;53.360;9.736;2022-11-04T15:52:15;6.72;;;1.77;;
30647;SDS011;17683;53.360;9.736;2022-11-04T15:54:45;4.13;;;1.80;;
30647;SDS011;17683;53.360;9.736;2022-11-04T15:59:49;5.43;;;1.10;;
30647;SDS011;17683;53.360;9.736;2022-11-04T16:02:28;9.60;;;2.15;;
30647;SDS011;17683;53.360;9.736;2022-11-04T16:05:03;3.03;;;0.90;;
30647;SDS011;17683;53.360;9.736;2022-11-04T16:07:32;1.10;;;0.77;;
30647;SDS011;17683;53.360;9.736;2022-11-04T16:10:00;6.82;;;1.40;;
30647;SDS011;17683;53.360;9.736;2022-11-04T16:12:27;3.00;;;1.10;;
30647;SDS011;17683;53.360;9.736;2022-11-04T16:14:59;4.75;;;0.90;;
30647;SDS011;17683;53.360;9.736;2022-11-04T16:17:25;3.40;;;1.02;;
30647;SDS011;17683;53.360;9.736;2022-11-04T16:19:57;3.65;;;0.77;;
30647;SDS011;17683;53.360;9.736;2022-11-04T16:22:32;4.45;;;0.90;;
30647;SDS011;17683;53.360;9.736;2022-11-04T16:25:03;1.85;;;0.85;;
30647;SDS011;17683;53.360;9.736;2022-11-04T16:27:32;4.15;;;0.90;;
30647;SDS011;17683;53.360;9.736;2022-11-04T16:35:41;4.90;;;1.08;;
30647;SDS011;17683;53.360;9.736;2022-11-04T16:38:07;3.58;;;0.88;;
30647;SDS011;17683;53.360;9.736;2022-11-04T16:40:33;2.08;;;1.20;;
30647;SDS011;17683;53.360;9.736;2022-11-04T16:42:59;2.38;;;0.90;;
30647;SDS011;17683;53.360;9.736;2022-11-04T16:45:25;7.00;;;1.50;;
30647;SDS011;17683;53.360;9.736;2022-11-04T16:47:55;5.32;;;1.15;;
30647;SDS011;17683;53.360;9.736;2022-11-04T16:50:21;3.92;;;1.15;;
30647;SDS011;17683;53.360;9.736;2022-11-04T16:52:48;6.03;;;1.45;;
30647;SDS011;17683;53.360;9.736;2022-11-04T16:55:15;4.50;;;1.05;;
30647;SDS011;17683;53.360;9.736;2022-11-04T16:57:42;4.28;;;1.42;;
30647;SDS011;17683;53.360;9.736;2022-11-04T17:00:11;4.18;;;0.98;;
30647;SDS011;17683;53.360;9.736;2022-11-04T17:02:43;3.40;;;0.80;;
30647;SDS011;17683;53.360;9.736;2022-11-04T17:05:09;2.67;;;0.80;;
30647;SDS011;17683;53.360;9.736;2022-11-04T17:07:36;5.32;;;1.30;;
30647;SDS011;17683;53.360;9.736;2022-11-04T17:10:22;3.30;;;0.98;;
30647;SDS011;17683;53.360;9.736;2022-11-04T17:12:49;3.22;;;0.93;;
30647;SDS011;17683;53.360;9.736;2022-11-04T17:15:15;1.92;;;0.70;;
30647;SDS011;17683;53.360;9.736;2022-11-04T17:17:41;1.88;;;1.05;;
30647;SDS011;17683;53.360;9.736;2022-11-04T17:20:09;5.70;;;1.30;;
30647;SDS011;17683;53.360;9.736;2022-11-04T17:22:38;4.45;;;1.13;;
30647;SDS011;17683;53.360;9.736;2022-11-04T17:25:05;3.03;;;1.02;;
30647;SDS011;17683;53.360;9.736;2022-11-04T17:27:40;2.70;;;1.00;;
30647;SDS011;17683;53.360;9.736;2022-11-04T17:30:07;2.50;;;1.25;;
30647;SDS011;17683;53.360;9.736;2022-11-04T17:32:33;4.43;;;1.63;;
30647;SDS011;17683;53.360;9.736;2022-11-04T17:34:59;3.15;;;1.00;;
30647;SDS011;17683;53.360;9.736;2022-11-04T17:37:24;4.30;;;1.00;;